createdAt,value
2022-12-23T00:02:04.919Z,98673.16
2022-12-23T00:06:14.344Z,98675.94
2022-12-23T00:10:16.260Z,98686.38
2022-12-23T00:14:36.713Z,98683.38
2022-12-23T00:18:39.181Z,98681.16
2022-12-23T00:22:59.848Z,98676.47
2022-12-23T00:27:01.414Z,98676.75
2022-12-23T00:31:05.672Z,98672.31
2022-12-23T00:35:07.492Z,98667.38
2022-12-23T00:39:30.454Z,98656.06
2022-12-23T00:43:32.035Z,98661.31
2022-12-23T00:47:52.256Z,98649.72
2022-12-23T00:51:53.968Z,98661.31
2022-12-23T00:55:55.555Z,98666.53
2022-12-23T00:59:57.107Z,98672.03
2022-12-23T01:04:17.474Z,98675.09
2022-12-23T01:08:19.056Z,98674.53
2022-12-23T01:12:23.508Z,98677.53
2022-12-23T01:16:25.112Z,98680.59
2022-12-23T01:20:26.814Z,98695.44
2022-12-23T01:24:30.123Z,98696.56
2022-12-23T01:28:32.612Z,98685.25
2022-12-23T01:32:34.245Z,98696.00
2022-12-23T01:36:35.795Z,98698.75
2022-12-23T01:40:40.246Z,98706.75
2022-12-23T01:44:47.471Z,98712.53
2022-12-23T01:48:52.045Z,98728.25
2022-12-23T01:53:08.788Z,98726.88
2022-12-23T01:57:10.904Z,98731.56
2022-12-23T02:01:32.035Z,98731.56
2022-12-23T02:05:34.787Z,98739.25
2022-12-23T02:09:38.828Z,98740.09
2022-12-23T02:14:17.483Z,98744.50
2022-12-23T02:18:30.895Z,98749.19
2022-12-23T02:22:45.301Z,98761.03
2022-12-23T02:27:04.845Z,98778.38
2022-12-23T02:31:13.835Z,98781.97
2022-12-23T02:35:43.848Z,98784.16
2022-12-23T02:39:54.925Z,98792.44
2022-12-23T02:43:59.357Z,98793.00
2022-12-23T02:48:08.868Z,98797.38
2022-12-23T02:52:15.366Z,98802.91
2022-12-23T02:56:19.710Z,98799.88
2022-12-23T03:00:22.053Z,98812.25
2022-12-23T03:04:23.637Z,98817.50
2022-12-23T03:08:39.586Z,98824.13
2022-12-23T03:12:58.629Z,98831.56
2022-12-23T03:17:12.290Z,98834.88
2022-12-23T03:21:34.783Z,98842.28
2022-12-23T03:25:42.438Z,98857.16
2022-12-23T03:29:59.215Z,98854.41
2022-12-23T03:34:06.555Z,98856.06
2022-12-23T03:38:10.535Z,98867.06
2022-12-23T03:42:22.658Z,98859.63
2022-12-23T03:46:31.188Z,98867.06
2022-12-23T03:50:35.788Z,98873.16
2022-12-23T03:54:44.160Z,98885.81
2022-12-23T03:58:56.501Z,98886.63
2022-12-23T04:03:10.621Z,98886.06
2022-12-23T04:07:23.935Z,98893.47
2022-12-23T04:11:27.087Z,98902.53
2022-12-23T04:15:29.369Z,98912.91
2022-12-23T04:19:31.100Z,98923.91
2022-12-23T04:23:32.682Z,98917.50
2022-12-23T04:27:34.356Z,98924.63
2022-12-23T04:31:35.944Z,98918.75
2022-12-23T04:35:37.811Z,98898.34
2022-12-23T04:39:39.412Z,98913.97
2022-12-23T04:43:41.020Z,98924.94
2022-12-23T04:47:42.598Z,98927.72
2022-12-23T04:51:44.343Z,98913.44
2022-12-23T04:55:51.003Z,98908.84
2022-12-23T04:59:52.573Z,98928.44
2022-12-23T05:03:54.212Z,98924.56
2022-12-23T05:08:03.369Z,98928.72
2022-12-23T05:12:04.937Z,98933.16
2022-12-23T05:16:06.966Z,98926.88
2022-12-23T05:20:09.224Z,98925.81
2022-12-23T05:24:10.887Z,98927.19
2022-12-23T05:28:13.965Z,98921.94
2022-12-23T05:32:15.482Z,98927.41
2022-12-23T05:36:17.146Z,98930.63
2022-12-23T05:40:23.680Z,98926.41
2022-12-23T05:44:26.524Z,98932.44
2022-12-23T05:48:28.255Z,98934.72
2022-12-23T05:52:29.946Z,98925.72
2022-12-23T05:56:31.510Z,98922.97
2022-12-23T06:00:34.426Z,98921.09
2022-12-23T06:04:36.044Z,98933.22
2022-12-23T06:08:37.738Z,98929.97
2022-12-23T06:12:39.537Z,98933.84
2022-12-23T06:16:41.239Z,98935.50
2022-12-23T06:20:46.508Z,98927.81
2022-12-23T06:24:48.469Z,98926.78
2022-12-23T06:28:50.088Z,98938.94
2022-12-23T06:32:51.673Z,98946.38
2022-12-23T06:36:53.247Z,98956.28
2022-12-23T06:40:54.956Z,98955.75
2022-12-23T06:44:56.645Z,98959.09
2022-12-23T06:48:58.301Z,98964.31
2022-12-23T06:52:59.979Z,98961.00
2022-12-23T06:57:01.588Z,98965.16
2022-12-23T07:01:03.352Z,98972.56
2022-12-23T07:05:06.283Z,98972.03
2022-12-23T07:09:07.901Z,98972.03
2022-12-23T07:13:09.595Z,98965.97
2022-12-23T07:17:11.645Z,98955.81
2022-12-23T07:21:21.186Z,98952.50
2022-12-23T07:25:28.244Z,98953.63
2022-12-23T07:29:29.884Z,98949.78
2022-12-23T07:33:31.411Z,98950.63
2022-12-23T07:37:33.007Z,98951.72
2022-12-23T07:41:34.581Z,98982.63
2022-12-23T07:45:41.292Z,98993.91
2022-12-23T07:49:42.912Z,98983.44
2022-12-23T07:53:48.829Z,98987.03
2022-12-23T07:57:51.921Z,98992.31
2022-12-23T08:01:53.738Z,99007.75
2022-12-23T08:06:01.093Z,99006.34
2022-12-23T08:10:03.993Z,98997.28
2022-12-23T08:14:07.679Z,98987.38
2022-12-23T08:18:09.265Z,98981.84
2022-12-23T08:22:10.914Z,98977.44
2022-12-23T08:26:19.512Z,98968.59
2022-12-23T08:30:22.202Z,98962.81
2022-12-23T08:34:23.891Z,98967.50
2022-12-23T08:38:25.538Z,98959.50
2022-12-23T08:42:27.150Z,98969.72
2022-12-23T08:46:29.127Z,98974.38
2022-12-23T08:50:30.782Z,98983.75
2022-12-23T08:54:32.417Z,98995.63
2022-12-23T08:58:38.309Z,99009.97
2022-12-23T09:02:39.964Z,99005.84
2022-12-23T09:06:42.687Z,98998.69
2022-12-23T09:10:44.803Z,99002.25
2022-12-23T09:14:47.890Z,99008.03
2022-12-23T09:18:49.647Z,98995.38
2022-12-23T09:22:51.286Z,99004.75
2022-12-23T09:26:52.909Z,98997.84
2022-12-23T09:30:54.627Z,98998.97
2022-12-23T09:34:57.566Z,98993.13
2022-12-23T09:38:59.543Z,98994.25
2022-12-23T09:43:33.050Z,98987.06
2022-12-23T09:47:35.311Z,98985.38
2022-12-23T09:51:36.972Z,98992.03
2022-12-23T09:56:05.865Z,98990.59
2022-12-23T10:00:15.377Z,98988.09
2022-12-23T10:04:36.660Z,98981.75
2022-12-23T10:08:51.617Z,98979.00
2022-12-23T10:12:54.974Z,98978.47
2022-12-23T10:17:05.296Z,98972.66
2022-12-23T10:21:14.659Z,98965.22
2022-12-23T10:25:40.344Z,98971.06
2022-12-23T10:29:42.533Z,98967.47
2022-12-23T10:33:44.103Z,98951.72
2022-12-23T10:37:54.801Z,98942.06
2022-12-23T10:42:08.654Z,98935.47
2022-12-23T10:46:20.316Z,98928.25
2022-12-23T10:50:38.160Z,98928.00
2022-12-23T10:54:44.043Z,98923.59
2022-12-23T10:58:49.896Z,98916.97
2022-12-23T11:03:06.702Z,98904.28
2022-12-23T11:07:42.763Z,98895.69
2022-12-23T11:11:57.962Z,98876.63
2022-12-23T11:16:23.965Z,98871.91
2022-12-23T11:20:25.744Z,98861.69
2022-12-23T11:24:35.465Z,98844.00
2022-12-23T11:28:49.075Z,98827.94
2022-12-23T11:32:51.369Z,98832.34
2022-12-23T11:37:00.167Z,98826.25
2022-12-23T11:41:04.673Z,98816.03
2022-12-23T11:45:07.662Z,98810.25
2022-12-23T11:49:19.660Z,98792.63
2022-12-23T11:53:24.154Z,98804.22
2022-12-23T11:57:43.082Z,98779.41
2022-12-23T12:01:48.762Z,98761.44
2022-12-23T12:05:58.026Z,98755.91
2022-12-23T12:10:02.103Z,98745.03
2022-12-23T12:14:07.573Z,98739.78
2022-12-23T12:18:13.444Z,98732.88
2022-12-23T12:22:30.513Z,98725.66
2022-12-23T12:26:36.259Z,98722.31
2022-12-23T12:30:44.167Z,98713.78
2022-12-23T12:35:08.358Z,98698.03
2022-12-23T12:39:23.640Z,98686.63
2022-12-23T12:43:34.660Z,98681.09
2022-12-23T12:47:55.263Z,98680.28
2022-12-23T12:52:07.892Z,98667.06
2022-12-23T12:56:28.292Z,98658.75
2022-12-23T13:00:46.141Z,98648.19
2022-12-23T13:05:13.292Z,98644.03
2022-12-23T13:09:40.118Z,98648.72
2022-12-23T13:14:02.196Z,98642.38
2022-12-23T13:18:16.126Z,98639.06
2022-12-23T13:22:25.339Z,98639.91
2022-12-23T13:26:37.852Z,98629.44
2022-12-23T13:30:47.459Z,98613.41
2022-12-23T13:35:02.835Z,98607.34
2022-12-23T13:39:30.469Z,98602.91
2022-12-23T13:43:47.597Z,98589.00
2022-12-23T13:48:13.896Z,98574.38
2022-12-23T13:52:40.191Z,98572.44
2022-12-23T13:56:57.942Z,98552.03
2022-12-23T14:01:22.391Z,98559.69
2022-12-23T14:05:27.976Z,98564.91
2022-12-23T14:09:33.707Z,98566.81
2022-12-23T14:13:44.237Z,98556.84
2022-12-23T14:18:04.472Z,98551.06
2022-12-23T14:22:34.232Z,98547.66
2022-12-23T14:27:16.003Z,98540.47
2022-12-23T14:31:40.156Z,98528.06
2022-12-23T14:35:42.843Z,98510.38
2022-12-23T14:39:44.586Z,98517.03
2022-12-23T14:43:46.160Z,98513.66
2022-12-23T14:47:47.790Z,98512.75
2022-12-23T14:51:52.254Z,98506.66
2022-12-23T14:56:15.503Z,98507.19
2022-12-23T15:00:17.175Z,98510.75
2022-12-23T15:04:24.601Z,98507.72
2022-12-23T15:08:33.571Z,98509.88
2022-12-23T15:12:39.466Z,98516.00
2022-12-23T15:16:45.092Z,98509.63
2022-12-23T15:21:09.651Z,98508.44
2022-12-23T15:25:28.993Z,98516.75
2022-12-23T15:29:30.604Z,98522.75
2022-12-23T15:34:02.933Z,98526.94
2022-12-23T15:38:00.623Z,98541.28
2022-12-23T15:42:02.535Z,98541.78
2022-12-23T15:46:17.490Z,98546.22
2022-12-23T15:50:20.709Z,98546.66
2022-12-23T15:54:36.839Z,98538.09
2022-12-23T15:58:42.252Z,98538.59
2022-12-23T16:03:02.224Z,98539.66
2022-12-23T16:07:05.373Z,98533.00
2022-12-23T16:11:15.402Z,98543.78
2022-12-23T16:15:29.601Z,98543.47
2022-12-23T16:19:46.509Z,98533.16
2022-12-23T16:23:53.056Z,98540.28
2022-12-23T16:27:58.470Z,98530.09
2022-12-23T16:32:02.005Z,98520.66
2022-12-23T16:36:17.255Z,98533.91
2022-12-23T16:40:19.582Z,98544.97
2022-12-23T16:44:21.367Z,98545.56
2022-12-23T16:48:36.567Z,98542.50
2022-12-23T16:52:39.485Z,98534.97
2022-12-23T16:56:41.147Z,98529.75
2022-12-23T17:00:42.810Z,98529.44
2022-12-23T17:04:44.655Z,98531.41
2022-12-23T17:08:46.736Z,98532.53
2022-12-23T17:12:50.155Z,98512.66
2022-12-23T17:16:52.542Z,98570.97
2022-12-23T17:20:56.655Z,98607.50
2022-12-23T17:24:58.328Z,98614.66
2022-12-23T17:29:00.031Z,98613.97
2022-12-23T17:33:01.720Z,98593.38
2022-12-23T17:37:12.576Z,98621.53
2022-12-23T17:41:28.443Z,98596.59
2022-12-23T17:45:31.103Z,98615.84
2022-12-23T17:49:32.772Z,98622.47
2022-12-23T17:53:34.447Z,98632.34
2022-12-23T17:57:35.967Z,98636.16
2022-12-23T18:01:38.772Z,98644.69
2022-12-23T18:05:40.470Z,98652.38
2022-12-23T18:09:42.091Z,98657.09
2022-12-23T18:13:43.931Z,98666.28
2022-12-23T18:17:45.545Z,98662.16
2022-12-23T18:21:47.772Z,98663.84
2022-12-23T18:25:49.341Z,98662.78
2022-12-23T18:29:51.570Z,98666.16
2022-12-23T18:33:53.413Z,98673.91
2022-12-23T18:37:55.815Z,98676.19
2022-12-23T18:41:57.479Z,98688.88
2022-12-23T18:45:59.063Z,98691.41
2022-12-23T18:50:02.223Z,98690.03
2022-12-23T18:54:03.897Z,98690.63
2022-12-23T18:58:05.434Z,98693.38
2022-12-23T19:02:10.370Z,98707.75
2022-12-23T19:06:13.671Z,98715.16
2022-12-23T19:10:18.778Z,98723.72
2022-12-23T19:14:20.431Z,98737.53
2022-12-23T19:18:22.396Z,98744.16
2022-12-23T19:22:24.989Z,98724.03
2022-12-23T19:26:26.765Z,98745.06
2022-12-23T19:30:28.331Z,98749.00
2022-12-23T19:34:30.108Z,98758.69
2022-12-23T19:38:31.749Z,98764.53
2022-12-23T19:42:36.429Z,98774.31
2022-12-23T19:46:38.142Z,98771.81
2022-12-23T19:50:39.944Z,98787.03
2022-12-23T19:54:41.539Z,98790.38
2022-12-23T19:58:44.133Z,98807.00
2022-12-23T20:02:45.827Z,98792.13
2022-12-23T20:06:47.558Z,98804.59
2022-12-23T20:10:49.124Z,98805.41
2022-12-23T20:14:50.849Z,98816.75
2022-12-23T20:18:54.745Z,98830.91
2022-12-23T20:22:56.383Z,98861.25
2022-12-23T20:26:59.988Z,98869.53
2022-12-23T20:31:19.074Z,98883.91
2022-12-23T20:35:20.649Z,98891.38
2022-12-23T20:39:22.180Z,98898.25
2022-12-23T20:43:23.963Z,98901.56
2022-12-23T20:47:25.555Z,98911.53
2022-12-23T20:51:27.134Z,98902.69
2022-12-23T20:55:28.895Z,98905.16
2022-12-23T20:59:30.505Z,98910.41
2022-12-23T21:03:32.175Z,98911.53
2022-12-23T21:07:33.699Z,98906.84
2022-12-23T21:11:38.933Z,98910.97
2022-12-23T21:15:40.683Z,98910.66
2022-12-23T21:19:43.020Z,98925.28
2022-12-23T21:23:44.597Z,98933.00
2022-12-23T21:27:46.295Z,98947.63
2022-12-23T21:31:47.949Z,98959.50
2022-12-23T21:35:49.630Z,98945.72
2022-12-23T21:39:51.211Z,98955.09
2022-12-23T21:43:53.426Z,98958.38
2022-12-23T21:47:54.958Z,98969.41
2022-12-23T21:51:56.693Z,98981.56
2022-12-23T21:56:03.230Z,98973.31
2022-12-23T22:00:05.401Z,98980.16
2022-12-23T22:04:07.063Z,98984.06
2022-12-23T22:08:08.736Z,98989.28
2022-12-23T22:12:10.276Z,98988.72
2022-12-23T22:16:17.488Z,98985.13
2022-12-23T22:20:19.660Z,98988.75
2022-12-23T22:24:21.206Z,98985.44
2022-12-23T22:28:22.957Z,98996.72
2022-12-23T22:32:24.498Z,99009.69
2022-12-23T22:36:26.278Z,98996.47
2022-12-23T22:40:27.868Z,99003.63
2022-12-23T22:44:29.406Z,99011.06
2022-12-23T22:48:31.139Z,99015.78
2022-12-23T22:52:32.695Z,99034.81
2022-12-23T22:56:34.474Z,99041.72
2022-12-23T23:00:36.086Z,99050.25
2022-12-23T23:04:37.776Z,99059.66
2022-12-23T23:08:42.123Z,99072.34
2022-12-23T23:12:45.861Z,99080.59
2022-12-23T23:16:47.495Z,99070.13
2022-12-23T23:20:49.552Z,99081.16
2022-12-23T23:24:51.385Z,99090.28
2022-12-23T23:28:53.824Z,99095.78
2022-12-23T23:32:55.472Z,99109.03
2022-12-23T23:36:57.188Z,99115.66
2022-12-23T23:40:59.684Z,99126.69
2022-12-23T23:45:01.298Z,99126.69
2022-12-23T23:49:03.209Z,99126.66
2022-12-23T23:53:05.548Z,99127.81
2022-12-23T23:57:07.144Z,99137.41
